Alexanter 5 — SV7230 — position and weather

sailwx.info

Track history (hours):
 
Tides and Currents Weather Stations Pressure Air Temp Water Temp Dewpoint Dewpoint Depression Visibility Wind Speed Wind Dir Waves Ship Positions

Alexanter 5

Last reported at 2018-Feb-24 18:00 UTC. Time now 2018-Feb-24 18:24 UTC.
Position N 37°57' E 023°36'.

Length 38 m; draft 5.5 m.

Type: Tug. MMSI: 239634000.

Date/timePositionNaut miles runAvg speedWind from/ knotsBaromVisibWave heightAir tempDewpointWater temp
2018-Feb-24 18:00N 37°57' E 023°36'0 0.0
2018-Feb-24 17:30N 37°57' E 023°36'0 0.0
2018-Feb-24 17:00N 37°57' E 023°36'0 0.0
2018-Feb-24 16:30N 37°57' E 023°36'0 0.0
2018-Feb-24 16:00N 37°57' E 023°36'0 0.0
2018-Feb-24 15:30N 37°57' E 023°36'0 0.0
2018-Feb-24 15:00N 37°57' E 023°36'0 0.7
2018-Feb-24 14:30N 37°57' E 023°36'1 1.3
2018-Feb-24 14:00N 37°57' E 023°35'1 1.2
2018-Feb-24 13:30N 37°57' E 023°36'2 4.0
2018-Feb-24 13:00N 37°55' E 023°36'2 4.6
2018-Feb-24 12:30N 37°57' E 023°36'0 0.1
2018-Feb-24 12:00N 37°57' E 023°36'0 0.0
2018-Feb-24 11:30N 37°57' E 023°36'0 0.0
2018-Feb-24 11:00N 37°57' E 023°36'0 0.0
2018-Feb-24 10:30N 37°57' E 023°36'0 0.0
2018-Feb-24 10:00N 37°57' E 023°36'0 0.0
2018-Feb-24 09:30N 37°57' E 023°36'0 0.0
2018-Feb-24 09:00N 37°57' E 023°36'0 0.0
2018-Feb-24 08:30N 37°57' E 023°36'0 0.0
2018-Feb-24 08:00N 37°57' E 023°36'0 0.0
2018-Feb-24 07:30N 37°57' E 023°36'0 0.0
2018-Feb-24 07:00N 37°57' E 023°36'1 1.7
2018-Feb-24 06:30N 37°57' E 023°35'1 2.1
2018-Feb-24 06:00N 37°56' E 023°35'2 3.3
2018-Feb-24 05:30N 37°56' E 023°37'1 2.4
2018-Feb-24 05:00N 37°56' E 023°38'0 0.0
2018-Feb-24 04:30N 37°56' E 023°38'0 0.0
2018-Feb-24 04:00N 37°56' E 023°38'0 0.0
2018-Feb-24 03:30N 37°56' E 023°38'0 0.0
2018-Feb-24 03:00N 37°56' E 023°38'0 0.0
2018-Feb-24 02:30N 37°56' E 023°38'0 0.0
2018-Feb-24 02:00N 37°56' E 023°38'0 0.0
2018-Feb-24 01:30N 37°56' E 023°38'0 0.0
2018-Feb-24 01:00N 37°56' E 023°38'0 0.0
2018-Feb-24 00:30N 37°56' E 023°38'0 0.0
2018-Feb-24 00:00N 37°56' E 023°38'0 0.0
2018-Feb-23 23:30N 37°56' E 023°38'0 0.0
2018-Feb-23 23:00N 37°56' E 023°38'0 0.0
2018-Feb-23 22:30N 37°56' E 023°38'0 0.0
2018-Feb-23 22:00N 37°56' E 023°38'0 0.0
2018-Feb-23 21:30N 37°56' E 023°38'0 0.0
2018-Feb-23 21:00N 37°56' E 023°38'2 4.9
2018-Feb-23 20:30N 37°57' E 023°35'1 1.1
2018-Feb-23 20:00N 37°57' E 023°36'1 1.3
2018-Feb-23 19:30N 37°57' E 023°35'2 3.0
2018-Feb-23 19:00N 37°55' E 023°35'3 5.3
2018-Feb-23 18:30N 37°56' E 023°38'0 0.0
2018-Feb-23 18:00N 37°56' E 023°38'0 0.0
2018-Feb-23 17:30N 37°56' E 023°38'0 0.0
2018-Feb-23 17:00N 37°56' E 023°38'0 0.0
2018-Feb-23 16:30N 37°56' E 023°38'0 1.0
2018-Feb-23 16:00N 37°56' E 023°38'2 3.1
2018-Feb-23 15:30N 37°57' E 023°36'0 0.5
2018-Feb-23 15:00N 37°57' E 023°36'0 0.0
2018-Feb-23 14:30N 37°57' E 023°36'0 0.0
2018-Feb-23 14:00N 37°57' E 023°36'0 0.0
2018-Feb-23 13:30N 37°57' E 023°36'1 1.3
2018-Feb-23 13:00N 37°57' E 023°36'1 1.7
2018-Feb-23 12:30N 37°56' E 023°36'1 2.8
2018-Feb-23 12:00N 37°56' E 023°38'0 0.0
2018-Feb-23 11:30N 37°56' E 023°38'0 0.0
2018-Feb-23 07:17N 37°56' E 023°38'1 4.1
2018-Feb-23 07:01N 37°56' E 023°37'2 3.6
2018-Feb-23 06:31N 37°57' E 023°35'1 1.4
2018-Feb-23 06:00N 37°57' E 023°36'0 0.7
2018-Feb-23 05:31N 37°57' E 023°35'1 1.2
2018-Feb-23 05:01N 37°57' E 023°36'0 0.0
2018-Feb-23 04:30N 37°57' E 023°36'0 0.0
2018-Feb-23 04:01N 37°57' E 023°36'0 0.0
2018-Feb-23 03:31N 37°57' E 023°36'0 0.0
2018-Feb-23 03:01N 37°57' E 023°36'0 0.0
2018-Feb-23 02:31N 37°57' E 023°36'0 0.0
2018-Feb-23 02:01N 37°57' E 023°36'0 0.8
2018-Feb-23 01:30N 37°57' E 023°36'0 0.8
2018-Feb-23 01:00N 37°57' E 023°36'1 1.4
2018-Feb-23 00:30N 37°57' E 023°35'1 1.6
2018-Feb-23 00:01N 37°57' E 023°36'0 0.7
2018-Feb-22 23:30N 37°57' E 023°36'0 0.0
2018-Feb-22 23:01N 37°57' E 023°36'0 0.0
2018-Feb-22 22:30N 37°57' E 023°36'0 0.0
2018-Feb-22 22:00N 37°57' E 023°36'0 0.0
2018-Feb-22 21:30N 37°57' E 023°36'0 0.0
2018-Feb-22 21:00N 37°57' E 023°36'0 0.0
2018-Feb-22 20:30N 37°57' E 023°36'0 0.0
2018-Feb-22 20:01N 37°57' E 023°36'0 0.0
2018-Feb-22 19:31N 37°57' E 023°36'0 0.0
2018-Feb-22 19:01N 37°57' E 023°36'0 0.0
2018-Feb-22 18:30N 37°57' E 023°36'0 0.0
2018-Feb-22 18:00N 37°57' E 023°36'0 0.0
2018-Feb-22 17:31N 37°57' E 023°36'0 0.0
2018-Feb-22 17:01N 37°57' E 023°36'0 0.0
2018-Feb-22 16:30N 37°57' E 023°36'0 0.4
2018-Feb-22 16:00N 37°57' E 023°36'0 0.5
2018-Feb-22 15:31N 37°57' E 023°36'1 1.8
2018-Feb-22 15:01N 37°57' E 023°37'0 0.0
2018-Feb-22 14:30N 37°57' E 023°37'1 2.3
2018-Feb-22 14:01N 37°56' E 023°37'2 3.4
2018-Feb-22 13:31N 37°57' E 023°35'1 1.0
2018-Feb-22 13:01N 37°57' E 023°35'1 1.0
2018-Feb-22 12:31N 37°57' E 023°36'2 3.6
2018-Feb-22 12:00N 37°56' E 023°38'0 0.0
2018-Feb-22 11:31N 37°56' E 023°38'0 0.0
2018-Feb-22 07:16N 37°56' E 023°38'1 2.7
2018-Feb-22 07:00N 37°56' E 023°37'4 8.4
2018-Feb-22 06:30N 37°58' E 023°33'2 4.0
2018-Feb-22 06:00N 37°57' E 023°35'0 0.3
2018-Feb-22 05:30N 37°57' E 023°35'1 2.9
2018-Feb-22 05:00N 37°57' E 023°37'0 0.0
2018-Feb-22 04:30N 37°57' E 023°37'0 0.0
2018-Feb-22 04:00N 37°57' E 023°37'0 0.0
2018-Feb-22 03:30N 37°57' E 023°37'0 0.0
2018-Feb-22 03:00N 37°57' E 023°37'1 1.3
2018-Feb-22 02:30N 37°57' E 023°36'1 1.7
2018-Feb-22 02:01N 37°57' E 023°35'1 1.9
2018-Feb-22 01:30N 37°57' E 023°36'0 0.9
2018-Feb-22 01:00N 37°56' E 023°36'1 2.4
2018-Feb-22 00:30N 37°57' E 023°36'0 0.7
2018-Feb-22 00:00N 37°57' E 023°37'0 0.0
2018-Feb-21 23:30N 37°57' E 023°37'0 0.0
2018-Feb-21 23:00N 37°57' E 023°37'0 0.0
2018-Feb-21 22:30N 37°57' E 023°37'0 0.0
2018-Feb-21 22:00N 37°57' E 023°37'0 0.0
2018-Feb-21 21:30N 37°57' E 023°37'0 0.0
2018-Feb-21 21:00N 37°57' E 023°37'0 0.0
2018-Feb-21 20:30N 37°57' E 023°37'0 0.0
2018-Feb-21 20:00N 37°57' E 023°37'0 0.0
2018-Feb-21 19:30N 37°57' E 023°37'0 0.0
2018-Feb-21 19:00N 37°57' E 023°37'0 0.0
2018-Feb-21 18:30N 37°57' E 023°37'1 2.4
2018-Feb-21 18:00N 37°57' E 023°35'0 0.6
2018-Feb-21 17:30N 37°57' E 023°35'1 2.4
2018-Feb-21 17:00N 37°56' E 023°35'1 2.4
2018-Feb-21 16:30N 37°57' E 023°36'0 0.2
2018-Feb-21 16:00N 37°57' E 023°36'1 1.4
2018-Feb-21 15:30N 37°57' E 023°35'0 0.7
2018-Feb-21 15:00N 37°57' E 023°35'2 4.3
2018-Feb-21 14:30N 37°56' E 023°38'0 0.6
2018-Feb-21 14:00N 37°56' E 023°38'0 0.0
2018-Feb-21 13:30N 37°56' E 023°38'0 0.0
2018-Feb-21 13:00N 37°56' E 023°38'0 0.0
2018-Feb-21 12:30N 37°56' E 023°38'0 0.0
2018-Feb-21 12:00N 37°56' E 023°38'0 0.0
2018-Feb-21 11:30N 37°56' E 023°38'0 0.0
2018-Feb-21 10:28N 37°56' E 023°38'2 3.7
2018-Feb-21 10:00N 37°57' E 023°36'1 2.7
2018-Feb-21 09:31N 37°57' E 023°35'3 6.4
2018-Feb-21 09:01N 38°00' E 023°33'4 7.1
2018-Feb-21 08:30N 37°57' E 023°35'1 1.9
2018-Feb-21 08:00N 37°57' E 023°37'0 0.0
2018-Feb-21 07:31N 37°57' E 023°37'0 0.0
2018-Feb-21 07:01N 37°57' E 023°37'0 0.0
2018-Feb-21 06:31N 37°57' E 023°37'0 0.1
2018-Feb-21 06:01N 37°57' E 023°37'1 2.2
2018-Feb-21 05:31N 37°57' E 023°35'2 3.2
2018-Feb-21 05:01N 37°56' E 023°37'1 1.8
2018-Feb-21 04:31N 37°56' E 023°38'0 0.0
2018-Feb-21 04:01N 37°56' E 023°38'0 0.0
2018-Feb-21 03:31N 37°56' E 023°38'0 0.0
2018-Feb-21 03:00N 37°56' E 023°38'0 0.0
2018-Feb-21 02:31N 37°56' E 023°38'0 0.0
2018-Feb-21 02:01N 37°56' E 023°38'0 0.0
2018-Feb-21 01:31N 37°56' E 023°38'0 0.0
2018-Feb-21 01:00N 37°56' E 023°38'0 0.0
2018-Feb-21 00:30N 37°56' E 023°38'0 0.0
2018-Feb-21 00:00N 37°56' E 023°38'0 0.0
2018-Feb-20 23:30N 37°56' E 023°38'0 0.0
2018-Feb-20 23:00N 37°56' E 023°38'0 0.0
2018-Feb-20 22:30N 37°56' E 023°38'0 0.0
2018-Feb-20 22:00N 37°56' E 023°38'1 1.2
2018-Feb-20 21:31N 37°56' E 023°37'2 3.2
2018-Feb-20 21:00N 37°57' E 023°36'2 4.3
2018-Feb-20 20:30N 37°56' E 023°38'2 4.2
2018-Feb-20 20:00N 37°57' E 023°36'0 0.9
2018-Feb-20 19:30N 37°57' E 023°36'0 0.9
2018-Feb-20 19:00N 37°57' E 023°37'0 0.0
2018-Feb-20 18:30N 37°57' E 023°37'0 0.0
2018-Feb-20 18:00N 37°57' E 023°37'0 0.1
2018-Feb-20 17:30N 37°58' E 023°37'0 0.1
2018-Feb-20 17:01N 37°57' E 023°37'0 0.0
2018-Feb-20 16:31N 37°57' E 023°37'0 0.0
2018-Feb-20 16:00N 37°57' E 023°37'0 0.0
2018-Feb-20 15:30N 37°57' E 023°37'0 0.0
2018-Feb-20 15:00N 37°57' E 023°37'0 0.0
2018-Feb-20 14:30N 37°57' E 023°37'0 0.0
2018-Feb-20 14:00N 37°57' E 023°37'0 0.7
2018-Feb-20 13:31N 37°58' E 023°36'1 1.7
2018-Feb-20 13:00N 37°57' E 023°35'1 2.2
2018-Feb-20 12:30N 37°56' E 023°35'3 5.5
2018-Feb-20 12:00N 37°56' E 023°38'0 0.0
2018-Feb-20 11:30N 37°56' E 023°38'0 0.0
2018-Feb-20 11:00N 37°56' E 023°38'1 2.2
2018-Feb-20 10:30N 37°57' E 023°37'0 0.0
2018-Feb-20 10:00N 37°57' E 023°37'0 0.0
2018-Feb-20 09:30N 37°57' E 023°37'0 0.0
2018-Feb-20 09:00N 37°57' E 023°37'0 0.0
2018-Feb-20 08:31N 37°57' E 023°37'52101.7
2018-Feb-20 08:00N 37°50' E 024°42'52105.0
2018-Feb-20 07:30N 37°57' E 023°37'1 1.9
2018-Feb-20 06:52N 37°57' E 023°35'0 1.1
2018-Feb-20 06:30N 37°57' E 023°35'1 1.6
2018-Feb-20 06:00N 37°57' E 023°36'1 1.1
2018-Feb-20 05:30N 37°57' E 023°37'0 0.0
2018-Feb-20 05:00N 37°57' E 023°37'0 0.0
2018-Feb-20 04:30N 37°57' E 023°37'0 0.0
2018-Feb-20 04:00N 37°57' E 023°37'0 0.0
2018-Feb-20 03:30N 37°57' E 023°37'0 0.0
2018-Feb-20 03:00N 37°57' E 023°37'0 0.0
2018-Feb-20 02:30N 37°57' E 023°37'0 0.0
2018-Feb-20 02:00N 37°57' E 023°37'0 0.0
2018-Feb-20 01:30N 37°57' E 023°37'0 0.0
2018-Feb-20 01:00N 37°57' E 023°37'0 0.0
2018-Feb-20 00:30N 37°57' E 023°37'0 0.0
2018-Feb-19 23:58N 37°57' E 023°37'0 0.0
2018-Feb-19 23:30N 37°57' E 023°37'0 0.0
2018-Feb-19 23:00N 37°57' E 023°37'1 2.2
2018-Feb-19 22:30N 37°57' E 023°35'0 0.8
2018-Feb-19 22:01N 37°57' E 023°35'0 1.0
2018-Feb-19 21:30N 37°57' E 023°35'0 0.6
2018-Feb-19 21:00N 37°57' E 023°35'0 0.8
2018-Feb-19 20:30N 37°57' E 023°36'1 1.2
2018-Feb-19 20:00N 37°57' E 023°37'0 0.1
2018-Feb-19 19:30N 37°57' E 023°37'0 0.6
2018-Feb-19 19:00N 37°58' E 023°36'0 0.7
2018-Feb-19 18:30N 37°57' E 023°37'0 0.0
2018-Feb-19 18:00N 37°57' E 023°37'0 0.0
2018-Feb-19 17:30N 37°57' E 023°37'0 0.0
2018-Feb-19 17:00N 37°57' E 023°37'0 0.0
2018-Feb-19 16:30N 37°57' E 023°37'0 0.0
2018-Feb-19 16:00N 37°57' E 023°37'0 0.0
2018-Feb-19 15:30N 37°57' E 023°37'0 0.0
2018-Feb-19 15:00N 37°57' E 023°37'1 1.0
2018-Feb-19 14:30N 37°57' E 023°36'0 0.2
2018-Feb-19 14:00N 37°57' E 023°36'1 1.8
2018-Feb-19 13:30N 37°57' E 023°35'1 2.3
2018-Feb-19 13:00N 37°58' E 023°36'1 2.6
2018-Feb-19 12:30N 37°56' E 023°36'2 3.1
2018-Feb-19 12:00N 37°56' E 023°38'0 0.0
2018-Feb-19 11:30N 37°56' E 023°38'0 0.0
2018-Feb-19 10:27N 37°56' E 023°38'2 5.1
2018-Feb-19 10:00N 37°57' E 023°36'1 2.7
2018-Feb-19 09:30N 37°56' E 023°36'2 3.4
2018-Feb-19 09:00N 37°56' E 023°38'0 0.0
2018-Feb-19 08:30N 37°56' E 023°38'0 0.0
2018-Feb-19 08:00N 37°56' E 023°38'0 0.0
2018-Feb-19 07:30N 37°56' E 023°38'0 0.0
2018-Feb-19 07:00N 37°56' E 023°38'0 0.5
2018-Feb-19 06:30N 37°56' E 023°38'2 4.6
2018-Feb-19 06:00N 37°57' E 023°35'1 1.3
2018-Feb-19 05:30N 37°57' E 023°35'1 3.0
2018-Feb-19 05:01N 37°57' E 023°37'0 0.0
2018-Feb-19 04:30N 37°57' E 023°37'0 0.0
2018-Feb-19 04:00N 37°57' E 023°37'0 0.0
2018-Feb-19 03:31N 37°57' E 023°37'0 0.0
2018-Feb-19 03:00N 37°57' E 023°37'0 0.0
2018-Feb-19 02:30N 37°57' E 023°37'0 0.1
2018-Feb-19 02:00N 37°57' E 023°37'1 2.0
2018-Feb-19 01:30N 37°57' E 023°35'1 2.0
2018-Feb-19 00:59N 37°57' E 023°37'0 0.0
2018-Feb-19 00:30N 37°57' E 023°37'0 0.0
2018-Feb-19 00:00N 37°57' E 023°37'0 0.0
2018-Feb-18 23:30N 37°57' E 023°37'0 0.0
2018-Feb-18 23:00N 37°57' E 023°37'0 0.0
2018-Feb-18 22:31N 37°57' E 023°37'0 0.0
2018-Feb-18 22:00N 37°57' E 023°37'0 0.0
2018-Feb-18 21:30N 37°57' E 023°37'1 1.4
2018-Feb-18 21:00N 37°57' E 023°36'1 2.0
2018-Feb-18 20:31N 37°56' E 023°36'2 3.3
2018-Feb-18 20:00N 37°56' E 023°38'0 0.1
2018-Feb-18 19:29N 37°56' E 023°38'0 0.0
2018-Feb-18 19:00N 37°56' E 023°38'0 0.8
2018-Feb-18 18:30N 37°56' E 023°38'2 3.1
2018-Feb-18 18:01N 37°58' E 023°36'1 2.7
2018-Feb-18 17:31N 37°56' E 023°36'1 2.6
2018-Feb-18 17:00N 37°57' E 023°37'0 0.0
2018-Feb-18 16:31N 37°57' E 023°37'0 0.0
2018-Feb-18 16:00N 37°57' E 023°37'0 0.0
2018-Feb-18 15:31N 37°57' E 023°37'0 0.0
2018-Feb-18 15:00N 37°57' E 023°37'0 0.0
2018-Feb-18 14:31N 37°57' E 023°37'0 0.0
2018-Feb-18 14:00N 37°57' E 023°37'0 0.0
2018-Feb-18 13:30N 37°57' E 023°37'0 0.0
2018-Feb-18 13:01N 37°57' E 023°37'0 0.0
2018-Feb-18 12:30N 37°57' E 023°37'0 0.0
2018-Feb-18 12:00N 37°57' E 023°37'0 0.0
2018-Feb-18 11:30N 37°57' E 023°37'0 0.0
2018-Feb-18 11:01N 37°57' E 023°37'0 0.0
2018-Feb-18 10:30N 37°57' E 023°37'0 0.0
2018-Feb-18 10:00N 37°57' E 023°37'0 0.0
2018-Feb-18 09:31N 37°57' E 023°37'0 0.0
2018-Feb-18 09:00N 37°57' E 023°37'0 0.0
2018-Feb-18 08:30N 37°57' E 023°37'0 0.0
2018-Feb-18 08:01N 37°57' E 023°37'0 0.0
2018-Feb-18 07:31N 37°57' E 023°37'0 0.0
2018-Feb-18 07:00N 37°57' E 023°37'0 0.0
2018-Feb-18 06:30N 37°57' E 023°37'1 1.3
2018-Feb-18 06:01N 37°57' E 023°36'1 2.3
2018-Feb-18 05:30N 37°57' E 023°35'2 3.4
2018-Feb-18 05:00N 37°57' E 023°37'0 0.0
2018-Feb-18 04:31N 37°57' E 023°37'0 0.0
2018-Feb-18 04:00N 37°57' E 023°37'0 0.0
2018-Feb-18 03:31N 37°57' E 023°37'0 0.0
2018-Feb-18 03:01N 37°57' E 023°37'0 0.0
2018-Feb-18 02:31N 37°57' E 023°37'0 0.0
2018-Feb-18 02:00N 37°57' E 023°37'0 0.0
2018-Feb-18 01:31N 37°57' E 023°37'0 0.0
2018-Feb-18 01:00N 37°57' E 023°37'0 0.0
2018-Feb-18 00:31N 37°57' E 023°37'0 0.0
2018-Feb-18 00:01N 37°57' E 023°37'0 0.0
2018-Feb-17 23:29N 37°57' E 023°37'0 0.0
2018-Feb-17 23:00N 37°57' E 023°37'1 2.8
2018-Feb-17 22:31N 37°57' E 023°35'2 3.2
2018-Feb-17 22:00N 37°56' E 023°35'1 2.7
2018-Feb-17 21:30N 37°57' E 023°35'0 0.4
2018-Feb-17 21:00N 37°57' E 023°35'0 0.8
2018-Feb-17 20:30N 37°57' E 023°35'1 2.0
2018-Feb-17 20:00N 37°57' E 023°37'0 0.0
2018-Feb-17 19:30N 37°57' E 023°37'0 0.0
2018-Feb-17 19:01N 37°57' E 023°37'0 0.0
2018-Feb-17 18:30N 37°57' E 023°37'0 0.0
2018-Feb-17 18:01N 37°57' E 023°37'0 0.0
2018-Feb-17 17:30N 37°57' E 023°37'0 0.0
2018-Feb-17 17:00N 37°57' E 023°37'0 0.0
2018-Feb-17 16:30N 37°57' E 023°37'0 0.0
2018-Feb-17 16:00N 37°57' E 023°37'0 0.0
2018-Feb-17 15:31N 37°57' E 023°37'0 0.0
2018-Feb-17 15:01N 37°57' E 023°37'1 2.2
2018-Feb-17 14:31N 37°57' E 023°35'0 0.7
2018-Feb-17 14:00N 37°57' E 023°35'0 0.0
2018-Feb-17 13:30N 37°57' E 023°35'0 0.0
2018-Feb-17 13:00N 37°57' E 023°35'1 1.2
2018-Feb-17 12:31N 37°57' E 023°35'1 2.6
2018-Feb-17 12:00N 37°56' E 023°36'1 1.8
2018-Feb-17 11:31N 37°57' E 023°36'0 0.7
2018-Feb-17 11:00N 37°57' E 023°37'0 0.0
2018-Feb-17 10:30N 37°57' E 023°37'0 0.0
2018-Feb-17 10:00N 37°57' E 023°37'0 0.0
2018-Feb-17 09:30N 37°57' E 023°37'0 0.0
2018-Feb-17 09:00N 37°57' E 023°37'0 0.0
2018-Feb-17 08:30N 37°57' E 023°37'0 0.0
2018-Feb-17 08:00N 37°57' E 023°37'1 2.9
2018-Feb-17 07:30N 37°57' E 023°35'0 0.4
2018-Feb-17 07:01N 37°57' E 023°35'1 2.7
2018-Feb-17 06:31N 37°56' E 023°36'1 1.9
2018-Feb-17 06:00N 37°56' E 023°37'0 0.0
2018-Feb-17 05:29N 37°56' E 023°37'0 0.0
2018-Feb-17 05:00N 37°56' E 023°37'0 0.0
2018-Feb-17 04:30N 37°56' E 023°37'0 0.0
2018-Feb-17 04:00N 37°56' E 023°37'0 0.0
2018-Feb-17 03:30N 37°56' E 023°37'0 0.0
2018-Feb-17 03:00N 37°56' E 023°37'0 0.0
2018-Feb-17 02:30N 37°56' E 023°37'2 4.1
2018-Feb-17 02:00N 37°57' E 023°35'2 3.2
2018-Feb-17 01:30N 37°56' E 023°36'2 3.2
2018-Feb-17 01:01N 37°57' E 023°35'0 0.3
2018-Feb-17 00:30N 37°57' E 023°35'0 0.4
2018-Feb-17 00:01N 37°57' E 023°35'1 1.6
2018-Feb-16 23:31N 37°56' E 023°35'0 0.2
2018-Feb-16 23:00N 37°57' E 023°35'1 1.4
2018-Feb-16 22:31N 37°57' E 023°35'0 0.1
2018-Feb-16 22:01N 37°57' E 023°35'0 0.4
2018-Feb-16 21:31N 37°57' E 023°35'0 0.5
2018-Feb-16 21:01N 37°57' E 023°36'1 1.5
2018-Feb-16 20:30N 37°57' E 023°37'0 0.0
2018-Feb-16 20:01N 37°57' E 023°37'0 0.0
2018-Feb-16 19:30N 37°57' E 023°37'0 0.0
2018-Feb-16 19:01N 37°57' E 023°37'0 0.0
2018-Feb-16 18:31N 37°57' E 023°37'0 0.0
2018-Feb-16 18:00N 37°57' E 023°37'0 0.0
2018-Feb-16 17:30N 37°57' E 023°37'0 0.0
2018-Feb-16 16:59N 37°57' E 023°37'0 0.0
2018-Feb-16 16:30N 37°57' E 023°37'1 1.4
2018-Feb-16 16:00N 37°57' E 023°36'1 1.8
2018-Feb-16 15:30N 37°57' E 023°35'1 1.9
2018-Feb-16 15:01N 37°56' E 023°35'1 2.7
2018-Feb-16 14:31N 37°57' E 023°36'0 0.0
2018-Feb-16 14:00N 37°57' E 023°36'1 1.6
2018-Feb-16 13:30N 37°57' E 023°35'1 3.0
2018-Feb-16 13:00N 37°56' E 023°37'1 1.5
2018-Feb-16 12:30N 37°56' E 023°37'0 0.0
2018-Feb-16 12:00N 37°56' E 023°37'0 0.0
2018-Feb-16 11:30N 37°56' E 023°37'0 0.0
2018-Feb-16 07:58N 37°56' E 023°37'1 3.2
2018-Feb-16 07:30N 37°57' E 023°37'0 0.0
2018-Feb-16 07:00N 37°57' E 023°37'0 0.0
2018-Feb-16 06:30N 37°57' E 023°37'0 0.0
2018-Feb-16 06:00N 37°57' E 023°37'0 0.0
2018-Feb-16 05:30N 37°57' E 023°37'0 0.0
2018-Feb-16 05:00N 37°57' E 023°37'0 0.0
2018-Feb-16 04:30N 37°57' E 023°37'0 0.0
2018-Feb-16 03:59N 37°57' E 023°37'0 0.0
2018-Feb-16 03:30N 37°57' E 023°37'0 0.0
2018-Feb-16 03:00N 37°57' E 023°37'0 0.0
2018-Feb-16 02:30N 37°57' E 023°37'0 0.0
2018-Feb-16 02:00N 37°57' E 023°37'0 0.0
2018-Feb-16 01:29N 37°57' E 023°37'0 0.0
2018-Feb-16 01:00N 37°57' E 023°37'0 0.0
2018-Feb-16 00:30N 37°57' E 023°37'0 0.0
2018-Feb-16 00:00N 37°57' E 023°37'0 0.0
2018-Feb-15 23:29N 37°57' E 023°37'0 0.0
2018-Feb-15 23:00N 37°57' E 023°37'0 0.0
2018-Feb-15 22:30N 37°57' E 023°37'0 0.0
2018-Feb-15 22:00N 37°57' E 023°37'0 0.1
2018-Feb-15 21:30N 37°57' E 023°37'3 6.1
2018-Feb-15 21:00N 37°58' E 023°33'4 8.1
2018-Feb-15 20:31N 38°01' E 023°29'4 7.7
2018-Feb-15 20:00N 37°58' E 023°26'2 4.7
2018-Feb-15 19:30N 37°58' E 023°23'1 1.4
2018-Feb-15 19:00N 37°58' E 023°23'1 2.0
2018-Feb-15 18:31N 37°57' E 023°23'1 1.4
2018-Feb-15 18:00N 37°57' E 023°23'2 3.5
2018-Feb-15 17:30N 37°59' E 023°25'5 9.6
2018-Feb-15 17:00N 38°01' E 023°30'4 8.8
2018-Feb-15 16:31N 37°57' E 023°33'2 3.7
2018-Feb-15 16:00N 37°57' E 023°36'1 1.1
2018-Feb-15 15:30N 37°57' E 023°36'1 1.3
2018-Feb-15 15:00N 37°57' E 023°36'1 1.1
2018-Feb-15 14:30N 37°57' E 023°37'0 0.0
2018-Feb-15 14:00N 37°57' E 023°37'0 0.0
2018-Feb-15 13:30N 37°57' E 023°37'0 0.1
2018-Feb-15 13:00N 37°57' E 023°37'0 0.9
2018-Feb-15 12:30N 37°57' E 023°36'2 3.5
2018-Feb-15 12:00N 37°56' E 023°37'0 0.0
2018-Feb-15 11:30N 37°56' E 023°37'0 0.0
2018-Feb-15 00:21N 37°56' E 023°37'0 0.1
2018-Feb-14 22:56N 37°56' E 023°37'2 3.7
2018-Feb-14 22:30N 37°57' E 023°36'0 0.1
2018-Feb-14 22:00N 37°57' E 023°36'0 0.0
2018-Feb-14 21:26N 37°57' E 023°36'0 0.0
2018-Feb-14 20:59N 37°57' E 023°36'0 0.5
2018-Feb-14 20:29N 37°57' E 023°36'0 0.5
2018-Feb-14 19:57N 37°57' E 023°36'0 0.4
2018-Feb-14 19:16N 37°57' E 023°37'0 0.0
2018-Feb-14 18:47N 37°57' E 023°37'0 0.0
2018-Feb-14 18:27N 37°57' E 023°37'  
Track history (hours):
 
Tides and Currents Weather Stations Pressure Air Temp Water Temp Dewpoint Dewpoint Depression Visibility Wind Speed Wind Dir Waves Ship Positions

Alexanter 5

Last reported at 2018-Feb-24 18:00 UTC. Time now 2018-Feb-24 18:24 UTC.
Position N 37°57' E 023°36'.

Length 38 m; draft 5.5 m.

Type: Tug. MMSI: 239634000.

Date/timePositionNaut miles runAvg speedWind from/ knotsBaromVisibWave heightAir tempDewpointWater temp
2018-Feb-24 18:00N 37°57' E 023°36'0 0.0
2018-Feb-24 17:30N 37°57' E 023°36'0 0.0
2018-Feb-24 17:00N 37°57' E 023°36'0 0.0
2018-Feb-24 16:30N 37°57' E 023°36'0 0.0
2018-Feb-24 16:00N 37°57' E 023°36'0 0.0
2018-Feb-24 15:30N 37°57' E 023°36'0 0.0
2018-Feb-24 15:00N 37°57' E 023°36'0 0.7
2018-Feb-24 14:30N 37°57' E 023°36'1 1.3
2018-Feb-24 14:00N 37°57' E 023°35'1 1.2
2018-Feb-24 13:30N 37°57' E 023°36'2 4.0
2018-Feb-24 13:00N 37°55' E 023°36'2 4.6
2018-Feb-24 12:30N 37°57' E 023°36'0 0.1
2018-Feb-24 12:00N 37°57' E 023°36'0 0.0
2018-Feb-24 11:30N 37°57' E 023°36'0 0.0
2018-Feb-24 11:00N 37°57' E 023°36'0 0.0
2018-Feb-24 10:30N 37°57' E 023°36'0 0.0
2018-Feb-24 10:00N 37°57' E 023°36'0 0.0
2018-Feb-24 09:30N 37°57' E 023°36'0 0.0
2018-Feb-24 09:00N 37°57' E 023°36'0 0.0
2018-Feb-24 08:30N 37°57' E 023°36'0 0.0
2018-Feb-24 08:00N 37°57' E 023°36'0 0.0
2018-Feb-24 07:30N 37°57' E 023°36'0 0.0
2018-Feb-24 07:00N 37°57' E 023°36'1 1.7
2018-Feb-24 06:30N 37°57' E 023°35'1 2.1
2018-Feb-24 06:00N 37°56' E 023°35'2 3.3
2018-Feb-24 05:30N 37°56' E 023°37'1 2.4
2018-Feb-24 05:00N 37°56' E 023°38'0 0.0
2018-Feb-24 04:30N 37°56' E 023°38'0 0.0
2018-Feb-24 04:00N 37°56' E 023°38'0 0.0
2018-Feb-24 03:30N 37°56' E 023°38'0 0.0
2018-Feb-24 03:00N 37°56' E 023°38'0 0.0
2018-Feb-24 02:30N 37°56' E 023°38'0 0.0
2018-Feb-24 02:00N 37°56' E 023°38'0 0.0
2018-Feb-24 01:30N 37°56' E 023°38'0 0.0
2018-Feb-24 01:00N 37°56' E 023°38'0 0.0
2018-Feb-24 00:30N 37°56' E 023°38'0 0.0
2018-Feb-24 00:00N 37°56' E 023°38'0 0.0
2018-Feb-23 23:30N 37°56' E 023°38'0 0.0
2018-Feb-23 23:00N 37°56' E 023°38'0 0.0
2018-Feb-23 22:30N 37°56' E 023°38'0 0.0
2018-Feb-23 22:00N 37°56' E 023°38'0 0.0
2018-Feb-23 21:30N 37°56' E 023°38'0 0.0
2018-Feb-23 21:00N 37°56' E 023°38'2 4.9
2018-Feb-23 20:30N 37°57' E 023°35'1 1.1
2018-Feb-23 20:00N 37°57' E 023°36'1 1.3
2018-Feb-23 19:30N 37°57' E 023°35'2 3.0
2018-Feb-23 19:00N 37°55' E 023°35'3 5.3
2018-Feb-23 18:30N 37°56' E 023°38'0 0.0
2018-Feb-23 18:00N 37°56' E 023°38'0 0.0
2018-Feb-23 17:30N 37°56' E 023°38'0 0.0
2018-Feb-23 17:00N 37°56' E 023°38'0 0.0
2018-Feb-23 16:30N 37°56' E 023°38'0 1.0
2018-Feb-23 16:00N 37°56' E 023°38'2 3.1
2018-Feb-23 15:30N 37°57' E 023°36'0 0.5
2018-Feb-23 15:00N 37°57' E 023°36'0 0.0
2018-Feb-23 14:30N 37°57' E 023°36'0 0.0
2018-Feb-23 14:00N 37°57' E 023°36'0 0.0
2018-Feb-23 13:30N 37°57' E 023°36'1 1.3
2018-Feb-23 13:00N 37°57' E 023°36'1 1.7
2018-Feb-23 12:30N 37°56' E 023°36'1 2.8
2018-Feb-23 12:00N 37°56' E 023°38'0 0.0
2018-Feb-23 11:30N 37°56' E 023°38'0 0.0
2018-Feb-23 07:17N 37°56' E 023°38'1 4.1
2018-Feb-23 07:01N 37°56' E 023°37'2 3.6
2018-Feb-23 06:31N 37°57' E 023°35'1 1.4
2018-Feb-23 06:00N 37°57' E 023°36'0 0.7
2018-Feb-23 05:31N 37°57' E 023°35'1 1.2
2018-Feb-23 05:01N 37°57' E 023°36'0 0.0
2018-Feb-23 04:30N 37°57' E 023°36'0 0.0
2018-Feb-23 04:01N 37°57' E 023°36'0 0.0
2018-Feb-23 03:31N 37°57' E 023°36'0 0.0
2018-Feb-23 03:01N 37°57' E 023°36'0 0.0
2018-Feb-23 02:31N 37°57' E 023°36'0 0.0
2018-Feb-23 02:01N 37°57' E 023°36'0 0.8
2018-Feb-23 01:30N 37°57' E 023°36'0 0.8
2018-Feb-23 01:00N 37°57' E 023°36'1 1.4
2018-Feb-23 00:30N 37°57' E 023°35'1 1.6
2018-Feb-23 00:01N 37°57' E 023°36'0 0.7
2018-Feb-22 23:30N 37°57' E 023°36'0 0.0
2018-Feb-22 23:01N 37°57' E 023°36'0 0.0
2018-Feb-22 22:30N 37°57' E 023°36'0 0.0
2018-Feb-22 22:00N 37°57' E 023°36'0 0.0
2018-Feb-22 21:30N 37°57' E 023°36'0 0.0
2018-Feb-22 21:00N 37°57' E 023°36'0 0.0
2018-Feb-22 20:30N 37°57' E 023°36'0 0.0
2018-Feb-22 20:01N 37°57' E 023°36'0 0.0
2018-Feb-22 19:31N 37°57' E 023°36'0 0.0
2018-Feb-22 19:01N 37°57' E 023°36'0 0.0
2018-Feb-22 18:30N 37°57' E 023°36'0 0.0
2018-Feb-22 18:00N 37°57' E 023°36'0 0.0
2018-Feb-22 17:31N 37°57' E 023°36'0 0.0
2018-Feb-22 17:01N 37°57' E 023°36'0 0.0
2018-Feb-22 16:30N 37°57' E 023°36'0 0.4
2018-Feb-22 16:00N 37°57' E 023°36'0 0.5
2018-Feb-22 15:31N 37°57' E 023°36'1 1.8
2018-Feb-22 15:01N 37°57' E 023°37'0 0.0
2018-Feb-22 14:30N 37°57' E 023°37'1 2.3
2018-Feb-22 14:01N 37°56' E 023°37'2 3.4
2018-Feb-22 13:31N 37°57' E 023°35'1 1.0
2018-Feb-22 13:01N 37°57' E 023°35'1 1.0
2018-Feb-22 12:31N 37°57' E 023°36'2 3.6
2018-Feb-22 12:00N 37°56' E 023°38'0 0.0
2018-Feb-22 11:31N 37°56' E 023°38'0 0.0
2018-Feb-22 07:16N 37°56' E 023°38'1 2.7
2018-Feb-22 07:00N 37°56' E 023°37'4 8.4
2018-Feb-22 06:30N 37°58' E 023°33'2 4.0
2018-Feb-22 06:00N 37°57' E 023°35'0 0.3
2018-Feb-22 05:30N 37°57' E 023°35'1 2.9
2018-Feb-22 05:00N 37°57' E 023°37'0 0.0
2018-Feb-22 04:30N 37°57' E 023°37'0 0.0
2018-Feb-22 04:00N 37°57' E 023°37'0 0.0
2018-Feb-22 03:30N 37°57' E 023°37'0 0.0
2018-Feb-22 03:00N 37°57' E 023°37'1 1.3
2018-Feb-22 02:30N 37°57' E 023°36'1 1.7
2018-Feb-22 02:01N 37°57' E 023°35'1 1.9
2018-Feb-22 01:30N 37°57' E 023°36'0 0.9
2018-Feb-22 01:00N 37°56' E 023°36'1 2.4
2018-Feb-22 00:30N 37°57' E 023°36'0 0.7
2018-Feb-22 00:00N 37°57' E 023°37'0 0.0
2018-Feb-21 23:30N 37°57' E 023°37'0 0.0
2018-Feb-21 23:00N 37°57' E 023°37'0 0.0
2018-Feb-21 22:30N 37°57' E 023°37'0 0.0
2018-Feb-21 22:00N 37°57' E 023°37'0 0.0
2018-Feb-21 21:30N 37°57' E 023°37'0 0.0
2018-Feb-21 21:00N 37°57' E 023°37'0 0.0
2018-Feb-21 20:30N 37°57' E 023°37'0 0.0
2018-Feb-21 20:00N 37°57' E 023°37'0 0.0
2018-Feb-21 19:30N 37°57' E 023°37'0 0.0
2018-Feb-21 19:00N 37°57' E 023°37'0 0.0
2018-Feb-21 18:30N 37°57' E 023°37'1 2.4
2018-Feb-21 18:00N 37°57' E 023°35'0 0.6
2018-Feb-21 17:30N 37°57' E 023°35'1 2.4
2018-Feb-21 17:00N 37°56' E 023°35'1 2.4
2018-Feb-21 16:30N 37°57' E 023°36'0 0.2
2018-Feb-21 16:00N 37°57' E 023°36'1 1.4
2018-Feb-21 15:30N 37°57' E 023°35'0 0.7
2018-Feb-21 15:00N 37°57' E 023°35'2 4.3
2018-Feb-21 14:30N 37°56' E 023°38'0 0.6
2018-Feb-21 14:00N 37°56' E 023°38'0 0.0
2018-Feb-21 13:30N 37°56' E 023°38'0 0.0
2018-Feb-21 13:00N 37°56' E 023°38'0 0.0
2018-Feb-21 12:30N 37°56' E 023°38'0 0.0
2018-Feb-21 12:00N 37°56' E 023°38'0 0.0
2018-Feb-21 11:30N 37°56' E 023°38'0 0.0
2018-Feb-21 10:28N 37°56' E 023°38'2 3.7
2018-Feb-21 10:00N 37°57' E 023°36'1 2.7
2018-Feb-21 09:31N 37°57' E 023°35'3 6.4
2018-Feb-21 09:01N 38°00' E 023°33'4 7.1
2018-Feb-21 08:30N 37°57' E 023°35'1 1.9
2018-Feb-21 08:00N 37°57' E 023°37'0 0.0
2018-Feb-21 07:31N 37°57' E 023°37'0 0.0
2018-Feb-21 07:01N 37°57' E 023°37'0 0.0
2018-Feb-21 06:31N 37°57' E 023°37'0 0.1
2018-Feb-21 06:01N 37°57' E 023°37'1 2.2
2018-Feb-21 05:31N 37°57' E 023°35'2 3.2
2018-Feb-21 05:01N 37°56' E 023°37'1 1.8
2018-Feb-21 04:31N 37°56' E 023°38'0 0.0
2018-Feb-21 04:01N 37°56' E 023°38'0 0.0
2018-Feb-21 03:31N 37°56' E 023°38'0 0.0
2018-Feb-21 03:00N 37°56' E 023°38'0 0.0
2018-Feb-21 02:31N 37°56' E 023°38'0 0.0
2018-Feb-21 02:01N 37°56' E 023°38'0 0.0
2018-Feb-21 01:31N 37°56' E 023°38'0 0.0
2018-Feb-21 01:00N 37°56' E 023°38'0 0.0
2018-Feb-21 00:30N 37°56' E 023°38'0 0.0
2018-Feb-21 00:00N 37°56' E 023°38'0 0.0
2018-Feb-20 23:30N 37°56' E 023°38'0 0.0
2018-Feb-20 23:00N 37°56' E 023°38'0 0.0
2018-Feb-20 22:30N 37°56' E 023°38'0 0.0
2018-Feb-20 22:00N 37°56' E 023°38'1 1.2
2018-Feb-20 21:31N 37°56' E 023°37'2 3.2
2018-Feb-20 21:00N 37°57' E 023°36'2 4.3
2018-Feb-20 20:30N 37°56' E 023°38'2 4.2
2018-Feb-20 20:00N 37°57' E 023°36'0 0.9
2018-Feb-20 19:30N 37°57' E 023°36'0 0.9
2018-Feb-20 19:00N 37°57' E 023°37'0 0.0
2018-Feb-20 18:30N 37°57' E 023°37'0 0.0
2018-Feb-20 18:00N 37°57' E 023°37'0 0.1
2018-Feb-20 17:30N 37°58' E 023°37'0 0.1
2018-Feb-20 17:01N 37°57' E 023°37'0 0.0
2018-Feb-20 16:31N 37°57' E 023°37'0 0.0
2018-Feb-20 16:00N 37°57' E 023°37'0 0.0
2018-Feb-20 15:30N 37°57' E 023°37'0 0.0
2018-Feb-20 15:00N 37°57' E 023°37'0 0.0
2018-Feb-20 14:30N 37°57' E 023°37'0 0.0
2018-Feb-20 14:00N 37°57' E 023°37'0 0.7
2018-Feb-20 13:31N 37°58' E 023°36'1 1.7
2018-Feb-20 13:00N 37°57' E 023°35'1 2.2
2018-Feb-20 12:30N 37°56' E 023°35'3 5.5
2018-Feb-20 12:00N 37°56' E 023°38'0 0.0
2018-Feb-20 11:30N 37°56' E 023°38'0 0.0
2018-Feb-20 11:00N 37°56' E 023°38'1 2.2
2018-Feb-20 10:30N 37°57' E 023°37'0 0.0
2018-Feb-20 10:00N 37°57' E 023°37'0 0.0
2018-Feb-20 09:30N 37°57' E 023°37'0 0.0
2018-Feb-20 09:00N 37°57' E 023°37'0 0.0
2018-Feb-20 08:31N 37°57' E 023°37'52101.7
2018-Feb-20 08:00N 37°50' E 024°42'52105.0
2018-Feb-20 07:30N 37°57' E 023°37'1 1.9
2018-Feb-20 06:52N 37°57' E 023°35'0 1.1
2018-Feb-20 06:30N 37°57' E 023°35'1 1.6
2018-Feb-20 06:00N 37°57' E 023°36'1 1.1
2018-Feb-20 05:30N 37°57' E 023°37'0 0.0
2018-Feb-20 05:00N 37°57' E 023°37'0 0.0
2018-Feb-20 04:30N 37°57' E 023°37'0 0.0
2018-Feb-20 04:00N 37°57' E 023°37'0 0.0
2018-Feb-20 03:30N 37°57' E 023°37'0 0.0
2018-Feb-20 03:00N 37°57' E 023°37'0 0.0
2018-Feb-20 02:30N 37°57' E 023°37'0 0.0
2018-Feb-20 02:00N 37°57' E 023°37'0 0.0
2018-Feb-20 01:30N 37°57' E 023°37'0 0.0
2018-Feb-20 01:00N 37°57' E 023°37'0 0.0
2018-Feb-20 00:30N 37°57' E 023°37'0 0.0
2018-Feb-19 23:58N 37°57' E 023°37'0 0.0
2018-Feb-19 23:30N 37°57' E 023°37'0 0.0
2018-Feb-19 23:00N 37°57' E 023°37'1 2.2
2018-Feb-19 22:30N 37°57' E 023°35'0 0.8
2018-Feb-19 22:01N 37°57' E 023°35'0 1.0
2018-Feb-19 21:30N 37°57' E 023°35'0 0.6
2018-Feb-19 21:00N 37°57' E 023°35'0 0.8
2018-Feb-19 20:30N 37°57' E 023°36'1 1.2
2018-Feb-19 20:00N 37°57' E 023°37'0 0.1
2018-Feb-19 19:30N 37°57' E 023°37'0 0.6
2018-Feb-19 19:00N 37°58' E 023°36'0 0.7
2018-Feb-19 18:30N 37°57' E 023°37'0 0.0
2018-Feb-19 18:00N 37°57' E 023°37'0 0.0
2018-Feb-19 17:30N 37°57' E 023°37'0 0.0
2018-Feb-19 17:00N 37°57' E 023°37'0 0.0
2018-Feb-19 16:30N 37°57' E 023°37'0 0.0
2018-Feb-19 16:00N 37°57' E 023°37'0 0.0
2018-Feb-19 15:30N 37°57' E 023°37'0 0.0
2018-Feb-19 15:00N 37°57' E 023°37'1 1.0
2018-Feb-19 14:30N 37°57' E 023°36'0 0.2
2018-Feb-19 14:00N 37°57' E 023°36'1 1.8
2018-Feb-19 13:30N 37°57' E 023°35'1 2.3
2018-Feb-19 13:00N 37°58' E 023°36'1 2.6
2018-Feb-19 12:30N 37°56' E 023°36'2 3.1
2018-Feb-19 12:00N 37°56' E 023°38'0 0.0
2018-Feb-19 11:30N 37°56' E 023°38'0 0.0
2018-Feb-19 10:27N 37°56' E 023°38'2 5.1
2018-Feb-19 10:00N 37°57' E 023°36'1 2.7
2018-Feb-19 09:30N 37°56' E 023°36'2 3.4
2018-Feb-19 09:00N 37°56' E 023°38'0 0.0
2018-Feb-19 08:30N 37°56' E 023°38'0 0.0
2018-Feb-19 08:00N 37°56' E 023°38'0 0.0
2018-Feb-19 07:30N 37°56' E 023°38'0 0.0
2018-Feb-19 07:00N 37°56' E 023°38'0 0.5
2018-Feb-19 06:30N 37°56' E 023°38'2 4.6
2018-Feb-19 06:00N 37°57' E 023°35'1 1.3
2018-Feb-19 05:30N 37°57' E 023°35'1 3.0
2018-Feb-19 05:01N 37°57' E 023°37'0 0.0
2018-Feb-19 04:30N 37°57' E 023°37'0 0.0
2018-Feb-19 04:00N 37°57' E 023°37'0 0.0
2018-Feb-19 03:31N 37°57' E 023°37'0 0.0
2018-Feb-19 03:00N 37°57' E 023°37'0 0.0
2018-Feb-19 02:30N 37°57' E 023°37'0 0.1
2018-Feb-19 02:00N 37°57' E 023°37'1 2.0
2018-Feb-19 01:30N 37°57' E 023°35'1 2.0
2018-Feb-19 00:59N 37°57' E 023°37'0 0.0
2018-Feb-19 00:30N 37°57' E 023°37'0 0.0
2018-Feb-19 00:00N 37°57' E 023°37'0 0.0
2018-Feb-18 23:30N 37°57' E 023°37'0 0.0
2018-Feb-18 23:00N 37°57' E 023°37'0 0.0
2018-Feb-18 22:31N 37°57' E 023°37'0 0.0
2018-Feb-18 22:00N 37°57' E 023°37'0 0.0
2018-Feb-18 21:30N 37°57' E 023°37'1 1.4
2018-Feb-18 21:00N 37°57' E 023°36'1 2.0
2018-Feb-18 20:31N 37°56' E 023°36'2 3.3
2018-Feb-18 20:00N 37°56' E 023°38'0 0.1
2018-Feb-18 19:29N 37°56' E 023°38'0 0.0
2018-Feb-18 19:00N 37°56' E 023°38'0 0.8
2018-Feb-18 18:30N 37°56' E 023°38'2 3.1
2018-Feb-18 18:01N 37°58' E 023°36'1 2.7
2018-Feb-18 17:31N 37°56' E 023°36'1 2.6
2018-Feb-18 17:00N 37°57' E 023°37'0 0.0
2018-Feb-18 16:31N 37°57' E 023°37'0 0.0
2018-Feb-18 16:00N 37°57' E 023°37'0 0.0
2018-Feb-18 15:31N 37°57' E 023°37'0 0.0
2018-Feb-18 15:00N 37°57' E 023°37'0 0.0
2018-Feb-18 14:31N 37°57' E 023°37'0 0.0
2018-Feb-18 14:00N 37°57' E 023°37'0 0.0
2018-Feb-18 13:30N 37°57' E 023°37'0 0.0
2018-Feb-18 13:01N 37°57' E 023°37'0 0.0
2018-Feb-18 12:30N 37°57' E 023°37'0 0.0
2018-Feb-18 12:00N 37°57' E 023°37'0 0.0
2018-Feb-18 11:30N 37°57' E 023°37'0 0.0
2018-Feb-18 11:01N 37°57' E 023°37'0 0.0
2018-Feb-18 10:30N 37°57' E 023°37'0 0.0
2018-Feb-18 10:00N 37°57' E 023°37'0 0.0
2018-Feb-18 09:31N 37°57' E 023°37'0 0.0
2018-Feb-18 09:00N 37°57' E 023°37'0 0.0
2018-Feb-18 08:30N 37°57' E 023°37'0 0.0
2018-Feb-18 08:01N 37°57' E 023°37'0 0.0
2018-Feb-18 07:31N 37°57' E 023°37'0 0.0
2018-Feb-18 07:00N 37°57' E 023°37'0 0.0
2018-Feb-18 06:30N 37°57' E 023°37'1 1.3
2018-Feb-18 06:01N 37°57' E 023°36'1 2.3
2018-Feb-18 05:30N 37°57' E 023°35'2 3.4
2018-Feb-18 05:00N 37°57' E 023°37'0 0.0
2018-Feb-18 04:31N 37°57' E 023°37'0 0.0
2018-Feb-18 04:00N 37°57' E 023°37'0 0.0
2018-Feb-18 03:31N 37°57' E 023°37'0 0.0
2018-Feb-18 03:01N 37°57' E 023°37'0 0.0
2018-Feb-18 02:31N 37°57' E 023°37'0 0.0
2018-Feb-18 02:00N 37°57' E 023°37'0 0.0
2018-Feb-18 01:31N 37°57' E 023°37'0 0.0
2018-Feb-18 01:00N 37°57' E 023°37'0 0.0
2018-Feb-18 00:31N 37°57' E 023°37'0 0.0
2018-Feb-18 00:01N 37°57' E 023°37'0 0.0
2018-Feb-17 23:29N 37°57' E 023°37'0 0.0
2018-Feb-17 23:00N 37°57' E 023°37'1 2.8
2018-Feb-17 22:31N 37°57' E 023°35'2 3.2
2018-Feb-17 22:00N 37°56' E 023°35'1 2.7
2018-Feb-17 21:30N 37°57' E 023°35'0 0.4
2018-Feb-17 21:00N 37°57' E 023°35'0 0.8
2018-Feb-17 20:30N 37°57' E 023°35'1 2.0
2018-Feb-17 20:00N 37°57' E 023°37'0 0.0
2018-Feb-17 19:30N 37°57' E 023°37'0 0.0
2018-Feb-17 19:01N 37°57' E 023°37'0 0.0
2018-Feb-17 18:30N 37°57' E 023°37'0 0.0
2018-Feb-17 18:01N 37°57' E 023°37'0 0.0
2018-Feb-17 17:30N 37°57' E 023°37'0 0.0
2018-Feb-17 17:00N 37°57' E 023°37'0 0.0
2018-Feb-17 16:30N 37°57' E 023°37'0 0.0
2018-Feb-17 16:00N 37°57' E 023°37'0 0.0
2018-Feb-17 15:31N 37°57' E 023°37'0 0.0
2018-Feb-17 15:01N 37°57' E 023°37'1 2.2
2018-Feb-17 14:31N 37°57' E 023°35'0 0.7
2018-Feb-17 14:00N 37°57' E 023°35'0 0.0
2018-Feb-17 13:30N 37°57' E 023°35'0 0.0
2018-Feb-17 13:00N 37°57' E 023°35'1 1.2
2018-Feb-17 12:31N 37°57' E 023°35'1 2.6
2018-Feb-17 12:00N 37°56' E 023°36'1 1.8
2018-Feb-17 11:31N 37°57' E 023°36'0 0.7
2018-Feb-17 11:00N 37°57' E 023°37'0 0.0
2018-Feb-17 10:30N 37°57' E 023°37'0 0.0
2018-Feb-17 10:00N 37°57' E 023°37'0 0.0
2018-Feb-17 09:30N 37°57' E 023°37'0 0.0
2018-Feb-17 09:00N 37°57' E 023°37'0 0.0
2018-Feb-17 08:30N 37°57' E 023°37'0 0.0
2018-Feb-17 08:00N 37°57' E 023°37'1 2.9
2018-Feb-17 07:30N 37°57' E 023°35'0 0.4
2018-Feb-17 07:01N 37°57' E 023°35'1 2.7
2018-Feb-17 06:31N 37°56' E 023°36'1 1.9
2018-Feb-17 06:00N 37°56' E 023°37'0 0.0
2018-Feb-17 05:29N 37°56' E 023°37'0 0.0
2018-Feb-17 05:00N 37°56' E 023°37'0 0.0
2018-Feb-17 04:30N 37°56' E 023°37'0 0.0
2018-Feb-17 04:00N 37°56' E 023°37'0 0.0
2018-Feb-17 03:30N 37°56' E 023°37'0 0.0
2018-Feb-17 03:00N 37°56' E 023°37'0 0.0
2018-Feb-17 02:30N 37°56' E 023°37'2 4.1
2018-Feb-17 02:00N 37°57' E 023°35'2 3.2
2018-Feb-17 01:30N 37°56' E 023°36'2 3.2
2018-Feb-17 01:01N 37°57' E 023°35'0 0.3
2018-Feb-17 00:30N 37°57' E 023°35'0 0.4
2018-Feb-17 00:01N 37°57' E 023°35'1 1.6
2018-Feb-16 23:31N 37°56' E 023°35'0 0.2
2018-Feb-16 23:00N 37°57' E 023°35'1 1.4
2018-Feb-16 22:31N 37°57' E 023°35'0 0.1
2018-Feb-16 22:01N 37°57' E 023°35'0 0.4
2018-Feb-16 21:31N 37°57' E 023°35'0 0.5
2018-Feb-16 21:01N 37°57' E 023°36'1 1.5
2018-Feb-16 20:30N 37°57' E 023°37'0 0.0
2018-Feb-16 20:01N 37°57' E 023°37'0 0.0
2018-Feb-16 19:30N 37°57' E 023°37'0 0.0
2018-Feb-16 19:01N 37°57' E 023°37'0 0.0
2018-Feb-16 18:31N 37°57' E 023°37'0 0.0
2018-Feb-16 18:00N 37°57' E 023°37'0 0.0
2018-Feb-16 17:30N 37°57' E 023°37'0 0.0
2018-Feb-16 16:59N 37°57' E 023°37'0 0.0
2018-Feb-16 16:30N 37°57' E 023°37'1 1.4
2018-Feb-16 16:00N 37°57' E 023°36'1 1.8
2018-Feb-16 15:30N 37°57' E 023°35'1 1.9
2018-Feb-16 15:01N 37°56' E 023°35'1 2.7
2018-Feb-16 14:31N 37°57' E 023°36'0 0.0
2018-Feb-16 14:00N 37°57' E 023°36'1 1.6
2018-Feb-16 13:30N 37°57' E 023°35'1 3.0
2018-Feb-16 13:00N 37°56' E 023°37'1 1.5
2018-Feb-16 12:30N 37°56' E 023°37'0 0.0
2018-Feb-16 12:00N 37°56' E 023°37'0 0.0
2018-Feb-16 11:30N 37°56' E 023°37'0 0.0
2018-Feb-16 07:58N 37°56' E 023°37'1 3.2
2018-Feb-16 07:30N 37°57' E 023°37'0 0.0
2018-Feb-16 07:00N 37°57' E 023°37'0 0.0
2018-Feb-16 06:30N 37°57' E 023°37'0 0.0
2018-Feb-16 06:00N 37°57' E 023°37'0 0.0
2018-Feb-16 05:30N 37°57' E 023°37'0 0.0
2018-Feb-16 05:00N 37°57' E 023°37'0 0.0
2018-Feb-16 04:30N 37°57' E 023°37'0 0.0
2018-Feb-16 03:59N 37°57' E 023°37'0 0.0
2018-Feb-16 03:30N 37°57' E 023°37'0 0.0
2018-Feb-16 03:00N 37°57' E 023°37'0 0.0
2018-Feb-16 02:30N 37°57' E 023°37'0 0.0
2018-Feb-16 02:00N 37°57' E 023°37'0 0.0
2018-Feb-16 01:29N 37°57' E 023°37'0 0.0
2018-Feb-16 01:00N 37°57' E 023°37'0 0.0
2018-Feb-16 00:30N 37°57' E 023°37'0 0.0
2018-Feb-16 00:00N 37°57' E 023°37'0 0.0
2018-Feb-15 23:29N 37°57' E 023°37'0 0.0
2018-Feb-15 23:00N 37°57' E 023°37'0 0.0
2018-Feb-15 22:30N 37°57' E 023°37'0 0.0
2018-Feb-15 22:00N 37°57' E 023°37'0 0.1
2018-Feb-15 21:30N 37°57' E 023°37'3 6.1
2018-Feb-15 21:00N 37°58' E 023°33'4 8.1
2018-Feb-15 20:31N 38°01' E 023°29'4 7.7
2018-Feb-15 20:00N 37°58' E 023°26'2 4.7
2018-Feb-15 19:30N 37°58' E 023°23'1 1.4
2018-Feb-15 19:00N 37°58' E 023°23'1 2.0
2018-Feb-15 18:31N 37°57' E 023°23'1 1.4
2018-Feb-15 18:00N 37°57' E 023°23'2 3.5
2018-Feb-15 17:30N 37°59' E 023°25'5 9.6
2018-Feb-15 17:00N 38°01' E 023°30'4 8.8
2018-Feb-15 16:31N 37°57' E 023°33'2 3.7
2018-Feb-15 16:00N 37°57' E 023°36'1 1.1
2018-Feb-15 15:30N 37°57' E 023°36'1 1.3
2018-Feb-15 15:00N 37°57' E 023°36'1 1.1
2018-Feb-15 14:30N 37°57' E 023°37'0 0.0
2018-Feb-15 14:00N 37°57' E 023°37'0 0.0
2018-Feb-15 13:30N 37°57' E 023°37'0 0.1
2018-Feb-15 13:00N 37°57' E 023°37'0 0.9
2018-Feb-15 12:30N 37°57' E 023°36'2 3.5
2018-Feb-15 12:00N 37°56' E 023°37'0 0.0
2018-Feb-15 11:30N 37°56' E 023°37'0 0.0
2018-Feb-15 00:21N 37°56' E 023°37'0 0.1
2018-Feb-14 22:56N 37°56' E 023°37'2 3.7
2018-Feb-14 22:30N 37°57' E 023°36'0 0.1
2018-Feb-14 22:00N 37°57' E 023°36'0 0.0
2018-Feb-14 21:26N 37°57' E 023°36'0 0.0
2018-Feb-14 20:59N 37°57' E 023°36'0 0.5
2018-Feb-14 20:29N 37°57' E 023°36'0 0.5
2018-Feb-14 19:57N 37°57' E 023°36'0 0.4
2018-Feb-14 19:16N 37°57' E 023°37'0 0.0
2018-Feb-14 18:47N 37°57' E 023°37'0 0.0
2018-Feb-14 18:27N 37°57' E 023°37'  

Dump ship's entire track history